createdAt,value
2023-01-04T00:01:50.676Z,19.63
2023-01-04T00:04:18.005Z,20.05
2023-01-04T00:06:45.194Z,19.75
2023-01-04T00:09:12.070Z,23.70
2023-01-04T00:11:39.432Z,23.65
2023-01-04T00:14:06.221Z,22.05
2023-01-04T00:16:33.339Z,25.15
2023-01-04T00:19:00.367Z,25.60
2023-01-04T00:21:44.324Z,19.95
2023-01-04T00:24:17.441Z,18.80
2023-01-04T00:26:45.202Z,21.23
2023-01-04T00:29:15.348Z,15.73
2023-01-04T00:31:45.060Z,15.25
2023-01-04T00:34:15.955Z,15.95
2023-01-04T00:36:44.288Z,16.50
2023-01-04T00:39:20.551Z,15.88
2023-01-04T00:41:59.349Z,15.88
2023-01-04T00:44:29.241Z,16.83
2023-01-04T00:46:56.836Z,16.02
2023-01-04T00:49:24.127Z,16.50
2023-01-04T00:51:51.525Z,17.13
2023-01-04T00:54:21.984Z,18.13
2023-01-04T00:56:49.718Z,16.70
2023-01-04T00:59:22.503Z,16.85
2023-01-04T01:01:51.136Z,16.45
2023-01-04T01:04:35.049Z,17.88
2023-01-04T01:07:02.218Z,23.38
2023-01-04T01:09:29.785Z,26.02
2023-01-04T01:11:56.827Z,28.35
2023-01-04T01:14:25.907Z,31.45
2023-01-04T01:16:57.633Z,33.83
2023-01-04T01:19:27.075Z,39.95
2023-01-04T01:21:54.085Z,27.02
2023-01-04T01:24:21.142Z,25.25
2023-01-04T01:26:51.449Z,29.10
2023-01-04T01:29:18.774Z,27.20
2023-01-04T01:31:46.027Z,29.13
2023-01-04T01:34:16.412Z,28.77
2023-01-04T01:36:43.495Z,29.80
2023-01-04T01:39:10.349Z,28.90
2023-01-04T01:41:37.934Z,36.25
2023-01-04T01:44:12.995Z,36.60
2023-01-04T01:46:47.463Z,35.38
2023-01-04T01:49:32.708Z,33.45
2023-01-04T01:52:04.076Z,30.35
2023-01-04T01:54:40.272Z,31.70
2023-01-04T01:57:11.287Z,31.05
2023-01-04T01:59:42.773Z,31.48
2023-01-04T02:02:12.306Z,31.55
2023-01-04T02:04:45.669Z,29.00
2023-01-04T02:07:20.149Z,27.23
2023-01-04T02:09:49.315Z,27.58
2023-01-04T02:12:17.741Z,25.80
2023-01-04T02:14:47.237Z,26.90
2023-01-04T02:17:28.968Z,26.85
2023-01-04T02:20:14.543Z,27.75
2023-01-04T02:23:00.169Z,25.27
2023-01-04T02:25:48.628Z,22.63
2023-01-04T02:28:21.358Z,22.52
2023-01-04T02:31:13.003Z,24.40
2023-01-04T02:33:49.186Z,21.88
2023-01-04T02:36:38.858Z,16.33
2023-01-04T02:39:11.443Z,16.25
2023-01-04T02:41:59.668Z,16.55
2023-01-04T02:44:57.618Z,18.70
2023-01-04T02:47:48.215Z,17.65
2023-01-04T02:50:40.995Z,18.33
2023-01-04T02:53:22.405Z,17.52
2023-01-04T02:56:05.459Z,17.60
2023-01-04T02:58:38.014Z,19.08
2023-01-04T03:01:37.790Z,18.55
2023-01-04T03:04:50.642Z,19.33
2023-01-04T03:07:26.746Z,16.55
2023-01-04T03:10:03.365Z,14.80
2023-01-04T03:12:38.845Z,16.83
2023-01-04T03:15:22.300Z,16.58
2023-01-04T03:17:54.697Z,15.43
2023-01-04T03:20:25.844Z,15.30
2023-01-04T03:23:17.183Z,16.02
2023-01-04T03:28:55.136Z,14.77
2023-01-04T03:31:43.644Z,14.40
2023-01-04T03:34:30.653Z,14.13
2023-01-04T03:37:15.575Z,12.95
2023-01-04T03:40:29.266Z,13.27
2023-01-04T03:43:37.116Z,15.18
2023-01-04T03:46:31.022Z,15.48
2023-01-04T03:49:06.729Z,14.05
2023-01-04T03:51:39.964Z,15.57
2023-01-04T03:54:20.036Z,14.40
2023-01-04T03:56:50.229Z,14.13
2023-01-04T03:59:22.912Z,14.85
2023-01-04T04:01:50.344Z,14.52
2023-01-04T04:04:36.233Z,14.70
2023-01-04T04:07:21.513Z,15.88
2023-01-04T04:09:48.972Z,19.17
2023-01-04T04:12:16.731Z,25.13
2023-01-04T04:14:43.599Z,27.90
2023-01-04T04:17:11.037Z,23.58
2023-01-04T04:19:38.792Z,24.50
2023-01-04T04:22:05.831Z,22.10
2023-01-04T04:24:32.784Z,22.30
2023-01-04T04:27:02.118Z,16.65
2023-01-04T04:29:29.123Z,14.18
2023-01-04T04:31:56.475Z,15.45
2023-01-04T04:34:23.390Z,15.18
2023-01-04T04:36:50.511Z,13.50
2023-01-04T04:39:18.230Z,13.32
2023-01-04T04:41:45.281Z,13.07
2023-01-04T04:44:20.641Z,14.05
2023-01-04T04:46:48.731Z,13.85
2023-01-04T04:49:16.606Z,13.95
2023-01-04T04:51:44.555Z,13.88
2023-01-04T04:54:16.775Z,14.30
2023-01-04T04:56:44.860Z,15.20
2023-01-04T04:59:11.788Z,20.88
2023-01-04T05:01:39.078Z,18.30
2023-01-04T05:04:06.151Z,17.48
2023-01-04T05:06:33.611Z,17.42
2023-01-04T05:09:00.839Z,16.08
2023-01-04T05:11:46.187Z,17.20
2023-01-04T05:14:13.057Z,16.85
2023-01-04T05:16:40.342Z,17.95
2023-01-04T05:19:07.331Z,19.10
2023-01-04T05:21:34.644Z,18.52
2023-01-04T05:24:01.476Z,19.63
2023-01-04T05:26:28.749Z,20.88
2023-01-04T05:28:55.783Z,55.67
2023-01-04T05:31:22.905Z,36.95
2023-01-04T05:33:49.880Z,53.15
2023-01-04T05:36:17.471Z,38.95
2023-01-04T05:38:44.363Z,36.15
2023-01-04T05:41:30.432Z,30.95
2023-01-04T05:43:57.616Z,33.42
2023-01-04T05:46:24.609Z,34.53
2023-01-04T05:48:51.890Z,34.10
2023-01-04T05:51:19.040Z,36.05
2023-01-04T05:53:46.038Z,39.67
2023-01-04T05:56:13.104Z,41.15
2023-01-04T05:58:40.033Z,40.00
2023-01-04T06:01:08.120Z,40.78
2023-01-04T06:03:35.607Z,40.58
2023-01-04T06:06:03.153Z,38.97
2023-01-04T06:08:33.159Z,42.50
2023-01-04T06:11:00.802Z,51.30
2023-01-04T06:13:27.958Z,61.00
2023-01-04T06:15:57.640Z,57.38
2023-01-04T06:18:24.608Z,45.60
2023-01-04T06:20:52.094Z,43.33
2023-01-04T06:23:19.528Z,48.42
2023-01-04T06:25:46.472Z,50.13
2023-01-04T06:28:13.578Z,50.50
2023-01-04T06:30:40.686Z,47.70
2023-01-04T06:33:08.660Z,34.70
2023-01-04T06:35:36.063Z,35.03
2023-01-04T06:38:03.246Z,35.85
2023-01-04T06:40:30.196Z,31.42
2023-01-04T06:42:57.094Z,32.58
2023-01-04T06:45:24.176Z,37.42
2023-01-04T06:47:51.110Z,37.67
2023-01-04T06:50:18.218Z,39.60
2023-01-04T06:52:45.283Z,37.53
2023-01-04T06:55:12.267Z,40.55
2023-01-04T06:57:39.302Z,41.22
2023-01-04T07:00:08.387Z,66.45
2023-01-04T07:02:35.627Z,82.60
2023-01-04T07:05:03.481Z,84.25
2023-01-04T07:07:30.579Z,65.28
2023-01-04T07:09:57.658Z,72.78
2023-01-04T07:12:24.807Z,61.85
2023-01-04T07:14:51.975Z,67.88
2023-01-04T07:17:22.397Z,73.85
2023-01-04T07:19:52.564Z,66.38
2023-01-04T07:22:25.403Z,59.20
2023-01-04T07:24:52.701Z,54.78
2023-01-04T07:27:19.579Z,53.88
2023-01-04T07:29:47.071Z,51.75
2023-01-04T07:32:14.416Z,58.30
2023-01-04T07:34:41.433Z,67.40
2023-01-04T07:37:11.435Z,58.47
2023-01-04T07:39:38.687Z,59.42
2023-01-04T07:42:05.739Z,55.63
2023-01-04T07:44:35.644Z,48.08
2023-01-04T07:47:03.561Z,42.10
2023-01-04T07:49:30.751Z,42.72
2023-01-04T07:52:00.769Z,48.10
2023-01-04T07:54:27.702Z,50.35
2023-01-04T07:56:54.555Z,51.10
2023-01-04T07:59:22.007Z,48.75
2023-01-04T08:01:51.142Z,50.67
2023-01-04T08:04:22.216Z,50.40
2023-01-04T08:06:49.446Z,50.70
2023-01-04T08:09:17.868Z,57.10
2023-01-04T08:11:45.691Z,59.03
2023-01-04T08:14:12.551Z,61.83
2023-01-04T08:16:41.774Z,63.20
2023-01-04T08:19:14.159Z,65.25
2023-01-04T08:21:41.884Z,63.75
2023-01-04T08:24:12.241Z,69.70
2023-01-04T08:26:39.400Z,86.93
2023-01-04T08:29:06.354Z,80.50
2023-01-04T08:31:34.510Z,90.22
2023-01-04T08:34:05.914Z,82.57
2023-01-04T08:39:04.985Z,71.13
2023-01-04T08:42:04.237Z,48.78
2023-01-04T08:44:35.244Z,59.10
2023-01-04T08:47:02.501Z,58.28
2023-01-04T08:49:29.723Z,48.90
2023-01-04T08:51:57.119Z,42.55
2023-01-04T08:54:24.590Z,32.83
2023-01-04T08:56:51.899Z,29.52
2023-01-04T08:59:19.377Z,47.55
2023-01-04T09:01:47.122Z,48.05
2023-01-04T09:04:14.265Z,31.48
2023-01-04T09:06:42.652Z,28.65
2023-01-04T09:09:09.789Z,32.85
2023-01-04T09:11:38.490Z,32.58
2023-01-04T09:14:08.441Z,30.70
2023-01-04T09:16:40.136Z,37.00
2023-01-04T09:19:08.210Z,37.28
2023-01-04T09:21:35.977Z,44.25
2023-01-04T09:24:03.277Z,46.90
2023-01-04T09:26:30.579Z,46.42
2023-01-04T09:28:58.239Z,44.20
2023-01-04T09:31:27.741Z,45.17
2023-01-04T09:36:44.639Z,46.25
2023-01-04T09:39:18.759Z,48.58
2023-01-04T09:41:58.285Z,58.70
2023-01-04T09:45:23.098Z,57.60
2023-01-04T09:47:58.349Z,55.50
2023-01-04T09:50:36.935Z,57.58
2023-01-04T09:53:16.659Z,66.70
2023-01-04T09:55:48.495Z,82.35
2023-01-04T09:58:27.170Z,80.05
2023-01-04T10:01:15.985Z,85.13
2023-01-04T10:04:20.554Z,75.63
2023-01-04T10:06:48.906Z,86.40
2023-01-04T10:09:17.535Z,81.78
2023-01-04T10:12:00.392Z,91.55
2023-01-04T10:14:36.487Z,106.22
2023-01-04T10:18:34.091Z,103.80
2023-01-04T10:21:34.883Z,92.80
2023-01-04T10:23:54.508Z,95.40
2023-01-04T10:26:32.062Z,104.47
2023-01-04T10:29:27.127Z,96.18
2023-01-04T10:32:05.742Z,93.70
2023-01-04T10:34:45.813Z,104.93
2023-01-04T10:37:21.655Z,98.65
2023-01-04T10:39:57.062Z,90.75
2023-01-04T10:42:34.068Z,100.80
2023-01-04T10:45:16.238Z,119.82
2023-01-04T10:47:43.308Z,275.77
2023-01-04T10:50:22.837Z,275.50
2023-01-04T10:53:12.576Z,190.35
2023-01-04T10:56:25.622Z,150.35
2023-01-04T10:59:10.129Z,124.43
2023-01-04T11:01:49.601Z,109.57
2023-01-04T11:04:27.517Z,94.97
2023-01-04T11:07:05.402Z,93.53
2023-01-04T11:09:44.803Z,104.28
2023-01-04T11:12:16.573Z,109.20
2023-01-04T11:14:43.711Z,107.60
2023-01-04T11:17:12.087Z,103.43
2023-01-04T11:19:40.946Z,106.70
2023-01-04T11:22:30.981Z,114.78
2023-01-04T11:28:06.496Z,110.97
2023-01-04T11:30:46.020Z,124.63
2023-01-04T11:33:21.974Z,129.88
2023-01-04T11:35:52.435Z,150.35
2023-01-04T11:38:25.107Z,209.67
2023-01-04T11:41:05.944Z,201.27
2023-01-04T11:44:03.912Z,201.90
2023-01-04T11:46:34.053Z,190.50
2023-01-04T11:49:01.618Z,179.45
2023-01-04T11:51:34.659Z,176.00
2023-01-04T11:54:14.742Z,176.05
2023-01-04T11:57:11.713Z,173.63
2023-01-04T11:59:39.570Z,160.15
2023-01-04T12:02:34.877Z,144.48
2023-01-04T12:05:03.156Z,143.80
2023-01-04T12:07:31.587Z,145.07
2023-01-04T12:10:00.391Z,180.38
2023-01-04T12:12:33.047Z,203.68
2023-01-04T12:15:14.688Z,196.73
2023-01-04T12:18:02.159Z,205.27
2023-01-04T12:20:30.041Z,193.57
2023-01-04T12:22:57.237Z,183.43
2023-01-04T12:25:24.084Z,194.82
2023-01-04T12:27:52.195Z,206.07
2023-01-04T12:31:18.837Z,188.52
2023-01-04T12:33:52.936Z,133.82
2023-01-04T12:36:38.101Z,93.80
2023-01-04T12:39:13.328Z,123.22
2023-01-04T12:41:40.485Z,153.73
2023-01-04T12:44:44.343Z,152.43
2023-01-04T12:47:39.475Z,148.35
2023-01-04T12:50:08.744Z,142.30
2023-01-04T12:55:44.976Z,102.05
2023-01-04T13:01:29.120Z,99.32
2023-01-04T13:04:06.155Z,109.80
2023-01-04T13:06:45.674Z,106.93
2023-01-04T13:09:24.046Z,102.60
2023-01-04T13:11:51.525Z,112.30
2023-01-04T13:14:43.630Z,114.78
2023-01-04T13:17:22.940Z,116.25
2023-01-04T13:19:50.488Z,112.18
2023-01-04T13:22:29.282Z,95.40
2023-01-04T13:24:59.584Z,89.28
2023-01-04T13:27:27.555Z,77.05
2023-01-04T13:29:54.652Z,62.70
2023-01-04T13:32:32.058Z,61.78
2023-01-04T13:35:15.260Z,57.00
2023-01-04T13:37:51.099Z,60.10
2023-01-04T13:40:18.266Z,51.38
2023-01-04T13:43:07.994Z,49.28
2023-01-04T13:46:02.067Z,54.63
2023-01-04T13:48:48.061Z,55.22
2023-01-04T13:51:24.374Z,63.53
2023-01-04T13:53:55.696Z,71.35
2023-01-04T13:58:52.399Z,59.42
2023-01-04T14:01:25.215Z,68.93
2023-01-04T14:03:57.317Z,82.57
2023-01-04T14:06:39.659Z,63.50
2023-01-04T14:09:09.767Z,63.95
2023-01-04T14:12:05.787Z,68.47
2023-01-04T14:14:36.059Z,66.50
2023-01-04T14:17:24.241Z,72.50
2023-01-04T14:19:57.303Z,73.03
2023-01-04T14:22:47.253Z,70.80
2023-01-04T14:25:37.176Z,71.45
2023-01-04T14:28:20.858Z,80.35
2023-01-04T14:31:07.625Z,76.70
2023-01-04T14:33:36.450Z,74.18
2023-01-04T14:36:10.049Z,73.93
2023-01-04T14:38:48.198Z,72.30
2023-01-04T14:41:18.524Z,77.43
2023-01-04T14:43:48.961Z,82.95
2023-01-04T14:46:21.701Z,80.38
2023-01-04T14:48:49.385Z,73.32
2023-01-04T14:51:52.712Z,73.22
2023-01-04T14:54:25.064Z,80.80
2023-01-04T14:56:53.882Z,80.43
2023-01-04T14:59:24.150Z,88.88
2023-01-04T15:01:53.205Z,85.90
2023-01-04T15:04:20.486Z,77.57
2023-01-04T15:07:00.015Z,83.50
2023-01-04T15:09:28.276Z,83.60
2023-01-04T15:11:55.933Z,80.15
2023-01-04T15:14:23.785Z,81.63
2023-01-04T15:16:50.974Z,76.65
2023-01-04T15:19:18.029Z,72.30
2023-01-04T15:21:47.733Z,64.93
2023-01-04T15:24:14.683Z,76.00
2023-01-04T15:26:43.665Z,66.47
2023-01-04T15:29:31.625Z,65.65
2023-01-04T15:32:09.376Z,60.15
2023-01-04T15:34:39.452Z,61.65
2023-01-04T15:37:08.791Z,56.40
2023-01-04T15:39:35.793Z,56.33
2023-01-04T15:42:21.723Z,48.83
2023-01-04T15:44:48.589Z,55.00
2023-01-04T15:47:15.488Z,57.33
2023-01-04T15:49:42.412Z,56.90
2023-01-04T15:52:09.415Z,59.47
2023-01-04T15:54:36.326Z,67.45
2023-01-04T15:57:03.161Z,65.63
2023-01-04T15:59:30.199Z,64.68
2023-01-04T16:01:57.540Z,67.28
2023-01-04T16:04:24.821Z,63.30
2023-01-04T16:07:20.059Z,63.17
2023-01-04T16:09:51.158Z,66.07
2023-01-04T16:12:36.585Z,69.47
2023-01-04T16:15:03.629Z,70.60
2023-01-04T16:17:30.519Z,60.13
2023-01-04T16:26:28.535Z,56.67
2023-01-04T16:29:12.852Z,53.25
2023-01-04T16:43:10.878Z,53.95
2023-01-04T16:46:39.000Z,65.18
2023-01-04T16:49:17.110Z,49.10
2023-01-04T16:51:49.290Z,46.45
2023-01-04T16:57:27.462Z,58.15
2023-01-04T16:59:54.317Z,55.60
2023-01-04T17:28:22.880Z,94.45
2023-01-04T17:56:19.086Z,66.30
2023-01-04T17:58:47.923Z,67.10
2023-01-04T18:01:18.412Z,62.60
2023-01-04T18:03:47.939Z,59.05
2023-01-04T18:06:25.281Z,57.33
2023-01-04T18:08:53.375Z,51.13
2023-01-04T18:11:20.535Z,48.67
2023-01-04T18:13:48.030Z,50.67
2023-01-04T18:16:25.415Z,51.97
2023-01-04T18:18:58.821Z,50.13
2023-01-04T18:21:30.625Z,55.67
2023-01-04T18:27:20.438Z,53.05
2023-01-04T18:29:34.491Z,50.72
2023-01-04T18:32:01.816Z,48.13
2023-01-04T18:34:28.926Z,50.30
2023-01-04T18:36:56.436Z,50.90
2023-01-04T18:39:23.382Z,50.97
2023-01-04T18:41:50.656Z,49.58
2023-01-04T18:44:34.402Z,49.47
2023-01-04T18:47:05.641Z,47.38
2023-01-04T18:49:32.739Z,47.97
2023-01-04T18:51:59.949Z,48.80
2023-01-04T18:54:27.206Z,49.03
2023-01-04T18:57:08.915Z,48.80
2023-01-04T18:59:45.969Z,48.90
2023-01-04T19:02:51.427Z,44.85
2023-01-04T19:05:19.521Z,41.55
2023-01-04T19:07:46.514Z,39.72
2023-01-04T19:10:13.666Z,39.40
2023-01-04T19:12:40.653Z,44.75
2023-01-04T19:15:08.281Z,45.22
2023-01-04T19:17:35.729Z,43.47
2023-01-04T19:20:03.170Z,42.38
2023-01-04T19:22:30.153Z,42.75
2023-01-04T19:24:57.168Z,41.58
2023-01-04T19:27:29.865Z,43.08
2023-01-04T19:29:56.739Z,45.40
2023-01-04T19:32:26.226Z,47.20
2023-01-04T19:34:57.003Z,48.33
2023-01-04T19:37:23.882Z,43.65
2023-01-04T19:39:50.871Z,47.63
2023-01-04T19:42:17.855Z,45.35
2023-01-04T19:44:45.126Z,46.67
2023-01-04T19:47:14.601Z,44.28
2023-01-04T19:49:42.957Z,48.33
2023-01-04T19:52:09.914Z,48.55
2023-01-04T19:54:43.675Z,46.05
2023-01-04T19:57:13.130Z,46.75
2023-01-04T19:59:39.960Z,43.45
2023-01-04T20:02:07.365Z,39.75
2023-01-04T20:04:34.367Z,43.92
2023-01-04T20:07:01.363Z,45.08
2023-01-04T20:09:29.331Z,38.83
2023-01-04T20:11:56.467Z,38.42
2023-01-04T20:14:23.583Z,42.15
2023-01-04T20:16:50.730Z,42.78
2023-01-04T20:19:17.564Z,43.88
2023-01-04T20:21:45.317Z,48.17
2023-01-04T20:24:12.195Z,44.33
2023-01-04T20:26:40.113Z,39.17
2023-01-04T20:29:07.505Z,40.60
2023-01-04T20:31:35.128Z,42.20
2023-01-04T20:34:02.416Z,42.15
2023-01-04T20:36:29.622Z,43.33
2023-01-04T20:38:59.704Z,47.75
2023-01-04T20:41:29.201Z,48.10
2023-01-04T20:43:56.282Z,44.53
2023-01-04T20:46:27.277Z,41.72
2023-01-04T20:48:55.050Z,41.58
2023-01-04T20:51:27.939Z,37.47
2023-01-04T20:53:56.637Z,40.35
2023-01-04T20:56:25.703Z,36.83
2023-01-04T20:58:52.956Z,38.22
2023-01-04T21:01:25.472Z,35.33
2023-01-04T21:04:02.144Z,35.50
2023-01-04T21:06:30.673Z,30.05
2023-01-04T21:08:57.523Z,28.65
2023-01-04T21:11:24.617Z,26.83
2023-01-04T21:13:52.837Z,28.67
2023-01-04T21:16:19.953Z,27.10
2023-01-04T21:18:47.221Z,28.88
2023-01-04T21:21:16.891Z,29.38
2023-01-04T21:23:44.875Z,29.20
2023-01-04T21:26:14.964Z,31.05
2023-01-04T21:28:41.874Z,31.40
2023-01-04T21:31:22.693Z,31.75
2023-01-04T21:33:50.835Z,31.92
2023-01-04T21:36:20.520Z,32.20
2023-01-04T21:38:55.777Z,34.78
2023-01-04T21:41:25.107Z,34.78
2023-01-04T21:43:55.071Z,33.95
2023-01-04T21:46:22.669Z,31.33
2023-01-04T21:48:54.205Z,31.35
2023-01-04T21:51:21.581Z,31.02
2023-01-04T21:53:48.666Z,32.15
2023-01-04T21:56:18.652Z,32.53
2023-01-04T21:58:46.210Z,32.00
2023-01-04T22:01:15.755Z,30.88
2023-01-04T22:03:43.217Z,32.00
2023-01-04T22:06:10.479Z,32.78
2023-01-04T22:08:41.236Z,31.05
2023-01-04T22:11:08.527Z,33.20
2023-01-04T22:13:35.519Z,30.80
2023-01-04T22:16:10.999Z,29.05
2023-01-04T22:18:38.293Z,26.30
2023-01-04T22:21:08.336Z,28.23
2023-01-04T22:23:35.201Z,30.25
2023-01-04T22:26:02.633Z,26.38
2023-01-04T22:28:36.269Z,27.88
2023-01-04T22:31:08.931Z,28.58
2023-01-04T22:33:37.008Z,27.58
2023-01-04T22:36:08.407Z,32.58
2023-01-04T22:38:36.908Z,34.60
2023-01-04T22:41:11.397Z,30.25
2023-01-04T22:43:38.591Z,28.63
2023-01-04T22:46:09.055Z,28.67
2023-01-04T22:49:20.807Z,28.55
2023-01-04T22:51:51.147Z,25.77
2023-01-04T22:54:18.073Z,27.25
2023-01-04T22:56:45.343Z,29.55
2023-01-04T22:59:13.437Z,28.23
2023-01-04T23:01:41.711Z,27.92
2023-01-04T23:04:08.975Z,29.58
2023-01-04T23:06:35.978Z,32.88
2023-01-04T23:09:06.416Z,30.30
2023-01-04T23:11:36.698Z,31.40
2023-01-04T23:14:05.962Z,31.05
2023-01-04T23:16:33.746Z,29.13
2023-01-04T23:19:19.433Z,28.80
2023-01-04T23:21:49.460Z,25.55
2023-01-04T23:24:16.700Z,25.42
2023-01-04T23:26:44.925Z,27.02
2023-01-04T23:29:11.776Z,27.23
2023-01-04T23:32:08.887Z,26.75
2023-01-04T23:34:36.096Z,24.95
2023-01-04T23:37:03.001Z,23.17
2023-01-04T23:39:30.018Z,21.60
2023-01-04T23:41:56.945Z,22.48
2023-01-04T23:44:33.802Z,22.83
2023-01-04T23:49:35.510Z,22.95
2023-01-04T23:52:04.529Z,17.38
2023-01-04T23:54:38.520Z,23.25
2023-01-04T23:57:06.585Z,22.88
2023-01-04T23:59:33.642Z,23.95
